sensor_id;sensor_type;location;lat;lon;timestamp;pressure;altitude;pressure_sealevel;temperature;humidity
15568;BME280;7885;42.596;23.044;2022-12-20T00:02:26;94604.25;;;2.33;81.21
15568;BME280;7885;42.596;23.044;2022-12-20T00:04:53;94598.69;;;2.29;81.26
15568;BME280;7885;42.596;23.044;2022-12-20T00:07:21;94588.75;;;2.16;81.86
15568;BME280;7885;42.596;23.044;2022-12-20T00:09:48;94595.13;;;2.20;81.46
15568;BME280;7885;42.596;23.044;2022-12-20T00:12:15;94610.44;;;2.20;81.40
15568;BME280;7885;42.596;23.044;2022-12-20T00:14:42;94609.94;;;2.18;78.38
15568;BME280;7885;42.596;23.044;2022-12-20T00:17:09;94606.28;;;2.14;77.90
15568;BME280;7885;42.596;23.044;2022-12-20T00:19:36;94608.25;;;2.08;78.05
15568;BME280;7885;42.596;23.044;2022-12-20T00:22:03;94605.09;;;2.06;78.26
15568;BME280;7885;42.596;23.044;2022-12-20T00:24:31;94607.88;;;2.01;77.70
15568;BME280;7885;42.596;23.044;2022-12-20T00:26:58;94609.34;;;1.93;78.35
15568;BME280;7885;42.596;23.044;2022-12-20T00:29:24;94614.91;;;1.97;78.29
15568;BME280;7885;42.596;23.044;2022-12-20T00:31:51;94616.03;;;1.96;77.76
15568;BME280;7885;42.596;23.044;2022-12-20T00:34:18;94617.81;;;1.87;77.40
15568;BME280;7885;42.596;23.044;2022-12-20T00:36:45;94618.41;;;1.84;77.33
15568;BME280;7885;42.596;23.044;2022-12-20T00:39:12;94616.59;;;1.79;78.30
15568;BME280;7885;42.596;23.044;2022-12-20T00:41:40;94614.72;;;1.80;78.82
15568;BME280;7885;42.596;23.044;2022-12-20T00:44:07;94601.41;;;1.75;79.29
15568;BME280;7885;42.596;23.044;2022-12-20T00:46:34;94609.28;;;1.85;79.23
15568;BME280;7885;42.596;23.044;2022-12-20T00:49:01;94617.31;;;1.85;78.70
15568;BME280;7885;42.596;23.044;2022-12-20T00:51:28;94608.34;;;1.62;78.71
15568;BME280;7885;42.596;23.044;2022-12-20T00:53:56;94603.28;;;1.61;78.75
15568;BME280;7885;42.596;23.044;2022-12-20T00:56:23;94616.03;;;1.55;78.39
15568;BME280;7885;42.596;23.044;2022-12-20T00:58:52;94615.19;;;1.41;79.98
15568;BME280;7885;42.596;23.044;2022-12-20T01:01:21;94613.47;;;1.31;81.25
15568;BME280;7885;42.596;23.044;2022-12-20T01:03:49;94618.34;;;1.29;81.37
15568;BME280;7885;42.596;23.044;2022-12-20T01:06:17;94607.41;;;1.26;81.62
15568;BME280;7885;42.596;23.044;2022-12-20T01:08:45;94595.47;;;1.18;81.23
15568;BME280;7885;42.596;23.044;2022-12-20T01:11:13;94610.38;;;1.24;81.28
15568;BME280;7885;42.596;23.044;2022-12-20T01:13:42;94596.00;;;1.20;81.51
15568;BME280;7885;42.596;23.044;2022-12-20T01:16:13;94599.75;;;1.19;81.61
15568;BME280;7885;42.596;23.044;2022-12-20T01:18:40;94597.34;;;1.18;80.66
15568;BME280;7885;42.596;23.044;2022-12-20T01:21:09;94593.97;;;1.12;80.99
15568;BME280;7885;42.596;23.044;2022-12-20T01:23:36;94586.81;;;1.08;81.15
15568;BME280;7885;42.596;23.044;2022-12-20T01:26:06;94578.47;;;1.09;81.63
15568;BME280;7885;42.596;23.044;2022-12-20T01:28:34;94581.75;;;1.06;81.83
15568;BME280;7885;42.596;23.044;2022-12-20T01:31:01;94580.75;;;1.02;82.55
15568;BME280;7885;42.596;23.044;2022-12-20T01:33:32;94584.50;;;1.01;82.37
15568;BME280;7885;42.596;23.044;2022-12-20T01:36:00;94570.88;;;0.97;82.56
15568;BME280;7885;42.596;23.044;2022-12-20T01:38:28;94582.91;;;1.00;82.92
15568;BME280;7885;42.596;23.044;2022-12-20T01:40:55;94576.56;;;0.96;83.39
15568;BME280;7885;42.596;23.044;2022-12-20T01:43:23;94572.34;;;0.90;83.92
15568;BME280;7885;42.596;23.044;2022-12-20T01:45:50;94577.91;;;0.93;83.36
15568;BME280;7885;42.596;23.044;2022-12-20T01:48:20;94567.97;;;0.80;82.85
15568;BME280;7885;42.596;23.044;2022-12-20T01:50:50;94559.22;;;0.75;82.70
15568;BME280;7885;42.596;23.044;2022-12-20T01:53:20;94564.47;;;0.80;83.12
15568;BME280;7885;42.596;23.044;2022-12-20T01:55:48;94555.47;;;0.76;82.99
15568;BME280;7885;42.596;23.044;2022-12-20T01:58:17;94559.13;;;0.80;82.97
15568;BME280;7885;42.596;23.044;2022-12-20T02:00:45;94569.56;;;0.81;83.10
15568;BME280;7885;42.596;23.044;2022-12-20T02:03:14;94570.34;;;0.82;83.19
15568;BME280;7885;42.596;23.044;2022-12-20T02:05:44;94572.53;;;0.80;82.95
15568;BME280;7885;42.596;23.044;2022-12-20T02:08:16;94561.91;;;0.75;82.98
15568;BME280;7885;42.596;23.044;2022-12-20T02:10:57;94561.47;;;0.68;82.04
15568;BME280;7885;42.596;23.044;2022-12-20T02:13:36;94556.97;;;0.63;80.62
15568;BME280;7885;42.596;23.044;2022-12-20T02:16:08;94559.91;;;0.48;81.13
15568;BME280;7885;42.596;23.044;2022-12-20T02:18:44;94559.19;;;0.42;81.57
15568;BME280;7885;42.596;23.044;2022-12-20T02:21:22;94559.63;;;0.31;83.15
15568;BME280;7885;42.596;23.044;2022-12-20T02:30:09;94548.34;;;-0.04;84.15
15568;BME280;7885;42.596;23.044;2022-12-20T02:32:41;94548.19;;;-0.12;85.32
15568;BME280;7885;42.596;23.044;2022-12-20T02:35:11;94545.41;;;-0.26;86.06
15568;BME280;7885;42.596;23.044;2022-12-20T02:37:46;94558.59;;;-0.34;84.40
15568;BME280;7885;42.596;23.044;2022-12-20T02:40:14;94550.25;;;-0.52;87.06
15568;BME280;7885;42.596;23.044;2022-12-20T02:42:43;94552.94;;;-0.52;86.99
15568;BME280;7885;42.596;23.044;2022-12-20T02:45:12;94542.31;;;-0.57;87.22
15568;BME280;7885;42.596;23.044;2022-12-20T02:47:48;94548.16;;;-0.55;87.43
15568;BME280;7885;42.596;23.044;2022-12-20T02:50:21;94540.22;;;-0.60;86.96
15568;BME280;7885;42.596;23.044;2022-12-20T02:52:49;94533.84;;;-0.64;85.56
15568;BME280;7885;42.596;23.044;2022-12-20T02:55:17;94533.59;;;-0.67;86.02
15568;BME280;7885;42.596;23.044;2022-12-20T02:57:49;94541.63;;;-0.67;85.76
15568;BME280;7885;42.596;23.044;2022-12-20T03:00:20;94526.28;;;-0.80;85.86
15568;BME280;7885;42.596;23.044;2022-12-20T03:02:49;94518.53;;;-0.82;86.62
15568;BME280;7885;42.596;23.044;2022-12-20T03:05:37;94517.47;;;-0.81;85.72
15568;BME280;7885;42.596;23.044;2022-12-20T03:08:08;94525.31;;;-0.66;84.77
15568;BME280;7885;42.596;23.044;2022-12-20T03:10:35;94516.28;;;-0.70;84.65
15568;BME280;7885;42.596;23.044;2022-12-20T03:13:02;94515.16;;;-0.69;85.31
15568;BME280;7885;42.596;23.044;2022-12-20T03:15:31;94532.47;;;-0.61;84.78
15568;BME280;7885;42.596;23.044;2022-12-20T03:17:58;94531.66;;;-0.62;85.17
15568;BME280;7885;42.596;23.044;2022-12-20T03:20:24;94531.09;;;-0.59;84.19
15568;BME280;7885;42.596;23.044;2022-12-20T03:22:51;94536.75;;;-0.60;83.80
15568;BME280;7885;42.596;23.044;2022-12-20T03:25:18;94534.91;;;-0.65;84.18
15568;BME280;7885;42.596;23.044;2022-12-20T03:27:45;94536.78;;;-0.65;84.90
15568;BME280;7885;42.596;23.044;2022-12-20T03:32:41;94533.59;;;-0.91;85.22
15568;BME280;7885;42.596;23.044;2022-12-20T03:35:09;94535.31;;;-1.00;85.87
15568;BME280;7885;42.596;23.044;2022-12-20T03:37:36;94536.78;;;-0.89;85.47
15568;BME280;7885;42.596;23.044;2022-12-20T03:40:03;94545.31;;;-0.87;85.00
15568;BME280;7885;42.596;23.044;2022-12-20T03:42:31;94519.31;;;-1.05;85.71
15568;BME280;7885;42.596;23.044;2022-12-20T03:44:58;94540.41;;;-1.04;86.48
15568;BME280;7885;42.596;23.044;2022-12-20T03:47:27;94535.31;;;-1.00;85.93
15568;BME280;7885;42.596;23.044;2022-12-20T03:49:55;94529.28;;;-1.11;86.38
15568;BME280;7885;42.596;23.044;2022-12-20T03:52:22;94533.66;;;-0.96;85.98
15568;BME280;7885;42.596;23.044;2022-12-20T03:54:49;94528.50;;;-0.87;85.34
15568;BME280;7885;42.596;23.044;2022-12-20T03:57:16;94524.31;;;-0.98;85.09
15568;BME280;7885;42.596;23.044;2022-12-20T03:59:43;94520.59;;;-0.97;85.06
15568;BME280;7885;42.596;23.044;2022-12-20T04:02:10;94533.38;;;-0.94;84.49
15568;BME280;7885;42.596;23.044;2022-12-20T04:04:37;94511.88;;;-1.08;84.54
15568;BME280;7885;42.596;23.044;2022-12-20T04:07:06;94529.63;;;-1.22;85.25
15568;BME280;7885;42.596;23.044;2022-12-20T04:09:33;94525.94;;;-1.26;85.09
15568;BME280;7885;42.596;23.044;2022-12-20T04:12:00;94529.19;;;-1.34;85.87
15568;BME280;7885;42.596;23.044;2022-12-20T04:14:27;94522.28;;;-1.35;85.63
15568;BME280;7885;42.596;23.044;2022-12-20T04:16:53;94522.16;;;-1.54;86.60
15568;BME280;7885;42.596;23.044;2022-12-20T04:19:20;94513.69;;;-1.61;86.97
15568;BME280;7885;42.596;23.044;2022-12-20T04:21:47;94518.53;;;-1.63;86.96
15568;BME280;7885;42.596;23.044;2022-12-20T04:24:15;94524.69;;;-1.68;87.86
15568;BME280;7885;42.596;23.044;2022-12-20T04:26:42;94519.34;;;-1.68;88.09
15568;BME280;7885;42.596;23.044;2022-12-20T04:29:09;94522.94;;;-1.48;86.85
15568;BME280;7885;42.596;23.044;2022-12-20T04:31:36;94514.63;;;-1.47;86.40
15568;BME280;7885;42.596;23.044;2022-12-20T04:34:03;94505.34;;;-1.55;86.73
15568;BME280;7885;42.596;23.044;2022-12-20T04:36:30;94501.94;;;-1.60;86.21
15568;BME280;7885;42.596;23.044;2022-12-20T04:38:57;94515.44;;;-1.46;86.51
15568;BME280;7885;42.596;23.044;2022-12-20T04:41:25;94500.31;;;-1.56;85.63
15568;BME280;7885;42.596;23.044;2022-12-20T04:43:53;94500.88;;;-1.59;86.48
15568;BME280;7885;42.596;23.044;2022-12-20T04:46:22;94502.13;;;-1.52;86.19
15568;BME280;7885;42.596;23.044;2022-12-20T04:48:49;94510.19;;;-1.57;86.00
15568;BME280;7885;42.596;23.044;2022-12-20T04:51:16;94495.38;;;-1.73;86.62
15568;BME280;7885;42.596;23.044;2022-12-20T04:53:43;94505.50;;;-1.70;86.51
15568;BME280;7885;42.596;23.044;2022-12-20T04:56:14;94509.22;;;-1.71;86.99
15568;BME280;7885;42.596;23.044;2022-12-20T04:58:42;94509.50;;;-1.72;86.76
15568;BME280;7885;42.596;23.044;2022-12-20T05:01:10;94508.41;;;-1.66;86.54
15568;BME280;7885;42.596;23.044;2022-12-20T05:03:37;94501.19;;;-1.66;84.97
15568;BME280;7885;42.596;23.044;2022-12-20T05:06:05;94511.56;;;-1.59;85.35
15568;BME280;7885;42.596;23.044;2022-12-20T05:08:32;94494.34;;;-1.77;85.51
15568;BME280;7885;42.596;23.044;2022-12-20T05:10:59;94515.28;;;-1.60;85.38
15568;BME280;7885;42.596;23.044;2022-12-20T05:13:27;94504.88;;;-1.62;84.91
15568;BME280;7885;42.596;23.044;2022-12-20T05:15:56;94514.38;;;-1.45;85.18
15568;BME280;7885;42.596;23.044;2022-12-20T05:18:25;94503.81;;;-1.61;85.06
15568;BME280;7885;42.596;23.044;2022-12-20T05:20:54;94512.56;;;-1.55;85.01
15568;BME280;7885;42.596;23.044;2022-12-20T05:23:35;94513.91;;;-1.58;85.53
15568;BME280;7885;42.596;23.044;2022-12-20T05:26:20;94513.59;;;-1.51;85.15
15568;BME280;7885;42.596;23.044;2022-12-20T05:28:49;94521.91;;;-1.52;85.76
15568;BME280;7885;42.596;23.044;2022-12-20T05:31:17;94523.94;;;-1.44;85.02
15568;BME280;7885;42.596;23.044;2022-12-20T05:33:44;94515.91;;;-1.39;84.90
15568;BME280;7885;42.596;23.044;2022-12-20T05:36:11;94529.75;;;-1.37;84.88
15568;BME280;7885;42.596;23.044;2022-12-20T05:38:38;94529.19;;;-1.34;83.97
15568;BME280;7885;42.596;23.044;2022-12-20T05:41:05;94534.63;;;-1.44;81.42
15568;BME280;7885;42.596;23.044;2022-12-20T05:43:33;94525.88;;;-1.50;82.71
15568;BME280;7885;42.596;23.044;2022-12-20T05:46:00;94529.75;;;-1.37;83.72
15568;BME280;7885;42.596;23.044;2022-12-20T05:48:28;94522.88;;;-1.43;84.63
15568;BME280;7885;42.596;23.044;2022-12-20T05:50:55;94524.91;;;-1.30;85.72
15568;BME280;7885;42.596;23.044;2022-12-20T05:53:22;94532.34;;;-1.27;85.43
15568;BME280;7885;42.596;23.044;2022-12-20T05:55:51;94527.56;;;-1.30;85.28
15568;BME280;7885;42.596;23.044;2022-12-20T05:58:19;94530.81;;;-1.33;83.77
15568;BME280;7885;42.596;23.044;2022-12-20T06:00:46;94527.41;;;-1.44;83.54
15568;BME280;7885;42.596;23.044;2022-12-20T06:03:13;94544.78;;;-1.41;84.28
15568;BME280;7885;42.596;23.044;2022-12-20T06:05:43;94527.25;;;-1.52;84.14
15568;BME280;7885;42.596;23.044;2022-12-20T06:08:11;94538.28;;;-1.64;84.80
15568;BME280;7885;42.596;23.044;2022-12-20T06:10:39;94533.50;;;-1.67;85.82
15568;BME280;7885;42.596;23.044;2022-12-20T06:13:06;94532.75;;;-1.73;85.94
15568;BME280;7885;42.596;23.044;2022-12-20T06:15:33;94525.00;;;-1.74;86.53
15568;BME280;7885;42.596;23.044;2022-12-20T06:18:00;94522.31;;;-1.69;85.63
15568;BME280;7885;42.596;23.044;2022-12-20T06:20:28;94522.00;;;-1.63;85.39
15568;BME280;7885;42.596;23.044;2022-12-20T06:22:57;94524.50;;;-1.47;85.36
15568;BME280;7885;42.596;23.044;2022-12-20T06:25:24;94522.13;;;-0.68;85.03
15568;BME280;7885;42.596;23.044;2022-12-20T06:27:51;94520.81;;;0.28;80.24
15568;BME280;7885;42.596;23.044;2022-12-20T06:30:18;94521.78;;;1.29;76.06
15568;BME280;7885;42.596;23.044;2022-12-20T06:32:45;94520.75;;;1.93;73.58
15568;BME280;7885;42.596;23.044;2022-12-20T06:35:12;94530.25;;;2.49;71.52
15568;BME280;7885;42.596;23.044;2022-12-20T06:37:40;94519.56;;;3.02;69.38
15568;BME280;7885;42.596;23.044;2022-12-20T06:40:10;94521.41;;;3.54;66.34
15568;BME280;7885;42.596;23.044;2022-12-20T06:42:37;94522.34;;;4.15;65.12
15568;BME280;7885;42.596;23.044;2022-12-20T06:45:05;94514.47;;;4.79;62.18
15568;BME280;7885;42.596;23.044;2022-12-20T06:47:32;94501.84;;;5.64;58.58
15568;BME280;7885;42.596;23.044;2022-12-20T06:49:59;94512.91;;;6.58;55.50
15568;BME280;7885;42.596;23.044;2022-12-20T06:52:26;94507.09;;;7.22;53.40
15568;BME280;7885;42.596;23.044;2022-12-20T06:54:53;94491.25;;;8.18;50.66
15568;BME280;7885;42.596;23.044;2022-12-20T06:57:21;94506.31;;;9.07;47.65
15568;BME280;7885;42.596;23.044;2022-12-20T06:59:48;94508.44;;;9.41;47.11
15568;BME280;7885;42.596;23.044;2022-12-20T07:02:15;94504.28;;;9.91;45.96
15568;BME280;7885;42.596;23.044;2022-12-20T07:04:42;94501.19;;;10.39;44.05
15568;BME280;7885;42.596;23.044;2022-12-20T07:07:10;94491.81;;;10.72;43.14
15568;BME280;7885;42.596;23.044;2022-12-20T07:09:37;94484.63;;;10.83;43.19
15568;BME280;7885;42.596;23.044;2022-12-20T07:12:06;94485.22;;;11.11;42.21
15568;BME280;7885;42.596;23.044;2022-12-20T07:14:34;94498.22;;;11.59;41.17
15568;BME280;7885;42.596;23.044;2022-12-20T07:17:01;94478.69;;;11.99;39.31
15568;BME280;7885;42.596;23.044;2022-12-20T07:19:28;94476.47;;;12.57;37.96
15568;BME280;7885;42.596;23.044;2022-12-20T07:21:55;94475.47;;;13.32;35.61
15568;BME280;7885;42.596;23.044;2022-12-20T07:24:22;94482.25;;;14.23;33.53
15568;BME280;7885;42.596;23.044;2022-12-20T07:26:49;94489.03;;;15.01;31.99
15568;BME280;7885;42.596;23.044;2022-12-20T07:29:15;94487.78;;;15.67;29.89
15568;BME280;7885;42.596;23.044;2022-12-20T07:31:44;94491.38;;;15.96;29.91
15568;BME280;7885;42.596;23.044;2022-12-20T07:34:10;94483.13;;;16.52;29.21
15568;BME280;7885;42.596;23.044;2022-12-20T07:36:37;94475.66;;;16.92;28.31
15568;BME280;7885;42.596;23.044;2022-12-20T07:39:05;94472.91;;;16.92;27.79
15568;BME280;7885;42.596;23.044;2022-12-20T07:41:32;94483.09;;;17.02;27.58
15568;BME280;7885;42.596;23.044;2022-12-20T07:43:59;94472.94;;;16.81;27.73
15568;BME280;7885;42.596;23.044;2022-12-20T07:46:26;94470.97;;;16.89;27.18
15568;BME280;7885;42.596;23.044;2022-12-20T07:48:55;94475.66;;;16.95;27.73
15568;BME280;7885;42.596;23.044;2022-12-20T07:51:24;94471.78;;;16.79;27.83
15568;BME280;7885;42.596;23.044;2022-12-20T07:53:55;94472.56;;;16.40;28.66
15568;BME280;7885;42.596;23.044;2022-12-20T07:56:25;94471.38;;;16.20;28.00
15568;BME280;7885;42.596;23.044;2022-12-20T07:58:55;94477.63;;;15.89;28.51
15568;BME280;7885;42.596;23.044;2022-12-20T08:01:24;94472.94;;;15.86;29.43
15568;BME280;7885;42.596;23.044;2022-12-20T08:04:00;94458.81;;;15.98;29.10
15568;BME280;7885;42.596;23.044;2022-12-20T08:06:28;94469.03;;;16.57;28.32
15568;BME280;7885;42.596;23.044;2022-12-20T08:08:59;94471.66;;;17.10;27.57
15568;BME280;7885;42.596;23.044;2022-12-20T08:11:28;94462.13;;;17.43;27.13
15568;BME280;7885;42.596;23.044;2022-12-20T08:13:56;94472.47;;;17.98;26.41
15568;BME280;7885;42.596;23.044;2022-12-20T08:16:23;94474.94;;;18.40;25.34
15568;BME280;7885;42.596;23.044;2022-12-20T08:18:50;94470.25;;;18.82;25.23
15568;BME280;7885;42.596;23.044;2022-12-20T08:21:18;94468.44;;;19.39;24.60
15568;BME280;7885;42.596;23.044;2022-12-20T08:23:45;94470.91;;;19.67;24.33
15568;BME280;7885;42.596;23.044;2022-12-20T08:26:12;94460.41;;;20.12;23.53
15568;BME280;7885;42.596;23.044;2022-12-20T08:28:39;94469.38;;;19.63;22.28
15568;BME280;7885;42.596;23.044;2022-12-20T08:31:08;94458.09;;;19.81;22.56
15568;BME280;7885;42.596;23.044;2022-12-20T08:33:36;94468.75;;;20.09;22.73
15568;BME280;7885;42.596;23.044;2022-12-20T08:36:05;94455.06;;;19.72;22.35
15568;BME280;7885;42.596;23.044;2022-12-20T08:38:34;94453.53;;;20.21;22.39
15568;BME280;7885;42.596;23.044;2022-12-20T08:41:01;94451.63;;;20.44;22.67
15568;BME280;7885;42.596;23.044;2022-12-20T08:43:29;94456.03;;;20.65;22.08
15568;BME280;7885;42.596;23.044;2022-12-20T08:45:56;94446.81;;;20.95;21.62
15568;BME280;7885;42.596;23.044;2022-12-20T08:48:23;94447.41;;;21.06;21.46
15568;BME280;7885;42.596;23.044;2022-12-20T08:50:54;94447.09;;;21.00;21.58
15568;BME280;7885;42.596;23.044;2022-12-20T08:53:21;94461.59;;;21.08;21.88
15568;BME280;7885;42.596;23.044;2022-12-20T08:55:49;94446.16;;;21.30;21.18
15568;BME280;7885;42.596;23.044;2022-12-20T08:58:16;94442.31;;;21.24;21.15
15568;BME280;7885;42.596;23.044;2022-12-20T09:00:43;94430.94;;;21.78;20.96
15568;BME280;7885;42.596;23.044;2022-12-20T09:03:10;94444.13;;;22.26;20.28
15568;BME280;7885;42.596;23.044;2022-12-20T09:05:43;94451.00;;;22.53;19.96
15568;BME280;7885;42.596;23.044;2022-12-20T09:08:10;94403.66;;;22.28;19.83
15568;BME280;7885;42.596;23.044;2022-12-20T09:10:37;94449.38;;;22.88;20.06
15568;BME280;7885;42.596;23.044;2022-12-20T09:13:05;94450.16;;;22.89;19.54
15568;BME280;7885;42.596;23.044;2022-12-20T09:15:33;94439.69;;;23.09;19.47
15568;BME280;7885;42.596;23.044;2022-12-20T09:18:00;94441.34;;;23.35;18.79
15568;BME280;7885;42.596;23.044;2022-12-20T09:20:26;94430.63;;;23.21;18.78
15568;BME280;7885;42.596;23.044;2022-12-20T09:22:53;94421.41;;;22.79;18.74
15568;BME280;7885;42.596;23.044;2022-12-20T09:25:21;94413.09;;;22.31;19.23
15568;BME280;7885;42.596;23.044;2022-12-20T09:27:47;94411.25;;;22.08;19.70
15568;BME280;7885;42.596;23.044;2022-12-20T09:30:16;94410.72;;;21.97;19.83
15568;BME280;7885;42.596;23.044;2022-12-20T09:32:43;94410.59;;;22.36;19.52
15568;BME280;7885;42.596;23.044;2022-12-20T09:35:10;94402.06;;;22.59;19.26
15568;BME280;7885;42.596;23.044;2022-12-20T09:37:37;94403.81;;;22.86;19.56
15568;BME280;7885;42.596;23.044;2022-12-20T09:40:05;94404.19;;;23.00;19.45
15568;BME280;7885;42.596;23.044;2022-12-20T09:42:33;94388.00;;;22.83;19.75
15568;BME280;7885;42.596;23.044;2022-12-20T09:45:06;94405.38;;;22.87;18.97
15568;BME280;7885;42.596;23.044;2022-12-20T09:47:35;94392.41;;;22.68;19.52
15568;BME280;7885;42.596;23.044;2022-12-20T09:50:05;94386.09;;;22.96;19.24
15568;BME280;7885;42.596;23.044;2022-12-20T09:52:46;94388.56;;;22.29;18.99
15568;BME280;7885;42.596;23.044;2022-12-20T09:55:26;94379.03;;;22.14;20.01
15568;BME280;7885;42.596;23.044;2022-12-20T09:58:13;94364.72;;;21.63;20.11
15568;BME280;7885;42.596;23.044;2022-12-20T10:00:44;94359.41;;;21.53;20.90
15568;BME280;7885;42.596;23.044;2022-12-20T10:03:19;94355.41;;;21.18;21.22
15568;BME280;7885;42.596;23.044;2022-12-20T10:05:50;94349.78;;;20.39;21.50
15568;BME280;7885;42.596;23.044;2022-12-20T10:08:37;94340.41;;;20.76;21.74
15568;BME280;7885;42.596;23.044;2022-12-20T10:11:11;94344.31;;;20.79;21.18
15568;BME280;7885;42.596;23.044;2022-12-20T10:13:50;94326.28;;;20.71;21.05
15568;BME280;7885;42.596;23.044;2022-12-20T10:16:28;94328.41;;;20.83;21.87
15568;BME280;7885;42.596;23.044;2022-12-20T10:19:11;94323.69;;;21.23;21.38
15568;BME280;7885;42.596;23.044;2022-12-20T10:21:46;94309.31;;;21.63;20.84
15568;BME280;7885;42.596;23.044;2022-12-20T10:24:18;94296.44;;;22.05;20.63
15568;BME280;7885;42.596;23.044;2022-12-20T10:26:48;94294.63;;;22.15;20.18
15568;BME280;7885;42.596;23.044;2022-12-20T10:29:16;94286.47;;;22.08;20.21
15568;BME280;7885;42.596;23.044;2022-12-20T10:31:42;94287.78;;;22.03;20.37
15568;BME280;7885;42.596;23.044;2022-12-20T10:34:11;94265.13;;;22.21;20.34
15568;BME280;7885;42.596;23.044;2022-12-20T10:36:37;94282.09;;;22.39;20.28
15568;BME280;7885;42.596;23.044;2022-12-20T10:39:07;94276.00;;;22.60;19.92
15568;BME280;7885;42.596;23.044;2022-12-20T10:41:46;94281.72;;;22.53;20.05
15568;BME280;7885;42.596;23.044;2022-12-20T10:44:18;94271.06;;;22.52;20.19
15568;BME280;7885;42.596;23.044;2022-12-20T10:46:48;94260.47;;;21.86;21.00
15568;BME280;7885;42.596;23.044;2022-12-20T10:49:28;94256.34;;;21.94;21.25
15568;BME280;7885;42.596;23.044;2022-12-20T10:52:15;94251.44;;;21.65;20.71
15568;BME280;7885;42.596;23.044;2022-12-20T10:54:43;94232.72;;;20.46;21.13
15568;BME280;7885;42.596;23.044;2022-12-20T10:57:17;94254.41;;;20.47;22.16
15568;BME280;7885;42.596;23.044;2022-12-20T10:59:48;94237.22;;;20.16;21.78
15568;BME280;7885;42.596;23.044;2022-12-20T11:02:25;94243.91;;;19.96;22.52
15568;BME280;7885;42.596;23.044;2022-12-20T11:05:00;94227.44;;;19.89;23.13
15568;BME280;7885;42.596;23.044;2022-12-20T11:07:29;94215.75;;;20.01;23.22
15568;BME280;7885;42.596;23.044;2022-12-20T11:09:58;94229.09;;;20.29;23.13
15568;BME280;7885;42.596;23.044;2022-12-20T11:12:32;94238.25;;;20.03;23.17
15568;BME280;7885;42.596;23.044;2022-12-20T11:15:15;94229.94;;;19.80;22.31
15568;BME280;7885;42.596;23.044;2022-12-20T11:17:48;94229.00;;;19.43;23.41
15568;BME280;7885;42.596;23.044;2022-12-20T11:20:25;94222.19;;;18.94;24.46
15568;BME280;7885;42.596;23.044;2022-12-20T11:23:01;94216.28;;;18.96;24.07
15568;BME280;7885;42.596;23.044;2022-12-20T11:25:38;94222.72;;;18.86;24.36
15568;BME280;7885;42.596;23.044;2022-12-20T11:28:34;94210.72;;;18.35;25.38
15568;BME280;7885;42.596;23.044;2022-12-20T11:31:14;94214.84;;;18.20;25.46
15568;BME280;7885;42.596;23.044;2022-12-20T11:34:02;94209.91;;;18.04;25.50
15568;BME280;7885;42.596;23.044;2022-12-20T11:36:43;94153.22;;;17.70;25.91
15568;BME280;7885;42.596;23.044;2022-12-20T11:39:22;94199.59;;;17.75;25.71
15568;BME280;7885;42.596;23.044;2022-12-20T11:41:58;94183.31;;;17.46;26.64
15568;BME280;7885;42.596;23.044;2022-12-20T11:44:32;94179.56;;;17.26;25.84
15568;BME280;7885;42.596;23.044;2022-12-20T11:47:22;94181.91;;;16.69;26.33
15568;BME280;7885;42.596;23.044;2022-12-20T11:50:03;94178.47;;;16.54;27.15
15568;BME280;7885;42.596;23.044;2022-12-20T11:52:44;94179.09;;;16.00;27.97
15568;BME280;7885;42.596;23.044;2022-12-20T11:55:16;94173.25;;;15.91;27.57
15568;BME280;7885;42.596;23.044;2022-12-20T11:57:51;94164.63;;;15.92;28.47
15568;BME280;7885;42.596;23.044;2022-12-20T12:00:22;94161.09;;;15.85;28.46
15568;BME280;7885;42.596;23.044;2022-12-20T12:02:54;94156.75;;;15.94;28.32
15568;BME280;7885;42.596;23.044;2022-12-20T12:05:26;94150.13;;;15.88;28.07
15568;BME280;7885;42.596;23.044;2022-12-20T12:08:00;94166.94;;;15.94;28.94
15568;BME280;7885;42.596;23.044;2022-12-20T12:10:32;94155.19;;;15.86;28.15
15568;BME280;7885;42.596;23.044;2022-12-20T12:13:06;94100.38;;;15.69;28.51
15568;BME280;7885;42.596;23.044;2022-12-20T12:15:47;94132.03;;;15.94;28.43
15568;BME280;7885;42.596;23.044;2022-12-20T12:18:20;94166.00;;;16.36;28.02
15568;BME280;7885;42.596;23.044;2022-12-20T12:20:53;94147.13;;;16.34;27.53
15568;BME280;7885;42.596;23.044;2022-12-20T12:23:29;94120.59;;;16.10;28.25
15568;BME280;7885;42.596;23.044;2022-12-20T12:26:03;94130.81;;;16.06;27.78
15568;BME280;7885;42.596;23.044;2022-12-20T12:28:32;94151.25;;;15.94;28.36
15568;BME280;7885;42.596;23.044;2022-12-20T12:31:03;94138.03;;;15.64;28.36
15568;BME280;7885;42.596;23.044;2022-12-20T12:33:36;94143.84;;;15.81;28.31
15568;BME280;7885;42.596;23.044;2022-12-20T12:36:28;94146.59;;;15.81;28.88
15568;BME280;7885;42.596;23.044;2022-12-20T12:39:22;94144.69;;;15.67;29.68
15568;BME280;7885;42.596;23.044;2022-12-20T12:44:57;94145.50;;;15.53;29.60
15568;BME280;7885;42.596;23.044;2022-12-20T12:47:34;94143.56;;;15.36;30.33
15568;BME280;7885;42.596;23.044;2022-12-20T12:50:05;94113.03;;;15.09;29.81
15568;BME280;7885;42.596;23.044;2022-12-20T12:52:51;94138.84;;;15.33;29.87
15568;BME280;7885;42.596;23.044;2022-12-20T12:55:41;94146.31;;;15.29;30.33
15568;BME280;7885;42.596;23.044;2022-12-20T12:58:35;94138.09;;;15.22;30.71
15568;BME280;7885;42.596;23.044;2022-12-20T13:01:04;94132.22;;;14.99;29.87
15568;BME280;7885;42.596;23.044;2022-12-20T13:04:20;94124.81;;;14.85;29.50
15568;BME280;7885;42.596;23.044;2022-12-20T13:07:02;94128.69;;;14.59;29.95
15568;BME280;7885;42.596;23.044;2022-12-20T13:09:41;94127.41;;;14.25;30.57
15568;BME280;7885;42.596;23.044;2022-12-20T13:15:50;94127.50;;;13.42;32.88
15568;BME280;7885;42.596;23.044;2022-12-20T13:18:25;94100.31;;;13.05;33.36
15568;BME280;7885;42.596;23.044;2022-12-20T13:26:57;94117.72;;;12.39;35.30
15568;BME280;7885;42.596;23.044;2022-12-20T13:29:26;94105.75;;;12.10;36.05
15568;BME280;7885;42.596;23.044;2022-12-20T13:31:55;94113.03;;;11.96;36.72
15568;BME280;7885;42.596;23.044;2022-12-20T13:34:35;94120.09;;;12.04;37.08
15568;BME280;7885;42.596;23.044;2022-12-20T13:37:02;94109.91;;;11.97;37.15
15568;BME280;7885;42.596;23.044;2022-12-20T13:39:33;94111.38;;;11.88;37.69
15568;BME280;7885;42.596;23.044;2022-12-20T13:42:14;94086.34;;;11.19;38.25